sensor_id;sensor_type;location;lat;lon;timestamp;P1;durP1;ratioP1;P2;durP2;ratioP2
37275;SDS011;23166;51.150;21.620;2022-11-15T00:00:48;22.30;;;8.18;;
37275;SDS011;23166;51.150;21.620;2022-11-15T00:03:15;17.92;;;7.78;;
37275;SDS011;23166;51.150;21.620;2022-11-15T00:05:42;23.73;;;9.05;;
37275;SDS011;23166;51.150;21.620;2022-11-15T00:08:09;17.57;;;9.70;;
37275;SDS011;23166;51.150;21.620;2022-11-15T00:10:36;31.02;;;10.28;;
37275;SDS011;23166;51.150;21.620;2022-11-15T00:13:06;27.22;;;9.33;;
37275;SDS011;23166;51.150;21.620;2022-11-15T00:15:34;27.62;;;9.00;;
37275;SDS011;23166;51.150;21.620;2022-11-15T00:18:02;27.60;;;10.65;;
37275;SDS011;23166;51.150;21.620;2022-11-15T00:20:29;23.67;;;8.90;;
37275;SDS011;23166;51.150;21.620;2022-11-15T00:22:55;29.25;;;9.08;;
37275;SDS011;23166;51.150;21.620;2022-11-15T00:25:22;27.32;;;8.53;;
37275;SDS011;23166;51.150;21.620;2022-11-15T00:27:48;26.45;;;8.90;;
37275;SDS011;23166;51.150;21.620;2022-11-15T00:30:15;27.22;;;9.60;;
37275;SDS011;23166;51.150;21.620;2022-11-15T00:32:41;29.63;;;10.72;;
37275;SDS011;23166;51.150;21.620;2022-11-15T00:35:09;23.12;;;7.75;;
37275;SDS011;23166;51.150;21.620;2022-11-15T00:37:35;22.22;;;9.45;;
37275;SDS011;23166;51.150;21.620;2022-11-15T00:40:01;27.82;;;9.05;;
37275;SDS011;23166;51.150;21.620;2022-11-15T00:42:28;27.77;;;9.35;;
37275;SDS011;23166;51.150;21.620;2022-11-15T00:44:54;24.45;;;10.58;;
37275;SDS011;23166;51.150;21.620;2022-11-15T00:47:21;22.27;;;7.75;;
37275;SDS011;23166;51.150;21.620;2022-11-15T00:49:48;29.45;;;9.68;;
37275;SDS011;23166;51.150;21.620;2022-11-15T00:52:14;19.12;;;7.58;;
37275;SDS011;23166;51.150;21.620;2022-11-15T00:54:40;28.98;;;9.65;;
37275;SDS011;23166;51.150;21.620;2022-11-15T00:57:07;25.12;;;8.75;;
37275;SDS011;23166;51.150;21.620;2022-11-15T00:59:33;25.37;;;9.90;;
37275;SDS011;23166;51.150;21.620;2022-11-15T01:02:00;16.57;;;7.90;;
37275;SDS011;23166;51.150;21.620;2022-11-15T01:04:26;23.55;;;7.78;;
37275;SDS011;23166;51.150;21.620;2022-11-15T01:06:53;26.85;;;8.33;;
37275;SDS011;23166;51.150;21.620;2022-11-15T01:09:19;24.50;;;7.90;;
37275;SDS011;23166;51.150;21.620;2022-11-15T01:11:46;19.55;;;7.25;;
37275;SDS011;23166;51.150;21.620;2022-11-15T01:14:13;22.87;;;9.23;;
37275;SDS011;23166;51.150;21.620;2022-11-15T05:09:02;7.53;;;3.87;;
37275;SDS011;23166;51.150;21.620;2022-11-15T05:11:29;11.30;;;3.80;;
37275;SDS011;23166;51.150;21.620;2022-11-15T05:13:55;5.20;;;2.95;;
37275;SDS011;23166;51.150;21.620;2022-11-15T05:16:21;6.03;;;3.58;;
37275;SDS011;23166;51.150;21.620;2022-11-15T05:18:52;10.70;;;4.65;;
37275;SDS011;23166;51.150;21.620;2022-11-15T05:21:16;10.75;;;4.80;;
37275;SDS011;23166;51.150;21.620;2022-11-15T05:23:43;7.65;;;4.08;;
37275;SDS011;23166;51.150;21.620;2022-11-15T05:26:10;8.68;;;3.55;;
37275;SDS011;23166;51.150;21.620;2022-11-15T05:28:37;10.48;;;3.55;;
37275;SDS011;23166;51.150;21.620;2022-11-15T05:31:10;13.83;;;4.58;;
37275;SDS011;23166;51.150;21.620;2022-11-15T05:33:40;4.95;;;3.37;;
37275;SDS011;23166;51.150;21.620;2022-11-15T05:38:46;17.48;;;5.55;;
37275;SDS011;23166;51.150;21.620;2022-11-15T05:41:15;9.65;;;5.45;;
37275;SDS011;23166;51.150;21.620;2022-11-15T05:43:44;8.67;;;4.40;;
37275;SDS011;23166;51.150;21.620;2022-11-15T05:46:12;5.70;;;3.75;;
37275;SDS011;23166;51.150;21.620;2022-11-15T05:48:40;10.40;;;4.10;;
37275;SDS011;23166;51.150;21.620;2022-11-15T05:51:09;15.25;;;3.72;;
37275;SDS011;23166;51.150;21.620;2022-11-15T05:53:35;13.60;;;4.05;;
37275;SDS011;23166;51.150;21.620;2022-11-15T05:56:03;12.05;;;3.83;;
37275;SDS011;23166;51.150;21.620;2022-11-15T05:58:32;7.37;;;4.15;;
37275;SDS011;23166;51.150;21.620;2022-11-15T06:00:59;6.15;;;3.75;;
37275;SDS011;23166;51.150;21.620;2022-11-15T06:03:26;12.82;;;4.47;;
37275;SDS011;23166;51.150;21.620;2022-11-15T06:05:53;10.00;;;4.97;;
37275;SDS011;23166;51.150;21.620;2022-11-15T06:08:19;14.75;;;3.95;;
37275;SDS011;23166;51.150;21.620;2022-11-15T06:10:45;5.85;;;3.45;;
37275;SDS011;23166;51.150;21.620;2022-11-15T06:13:12;11.18;;;4.08;;
37275;SDS011;23166;51.150;21.620;2022-11-15T06:15:38;9.43;;;4.25;;
37275;SDS011;23166;51.150;21.620;2022-11-15T06:18:04;8.55;;;4.22;;
37275;SDS011;23166;51.150;21.620;2022-11-15T06:20:31;10.85;;;3.58;;
37275;SDS011;23166;51.150;21.620;2022-11-15T06:22:58;12.90;;;5.67;;
37275;SDS011;23166;51.150;21.620;2022-11-15T06:25:30;12.33;;;5.03;;
37275;SDS011;23166;51.150;21.620;2022-11-15T06:27:57;6.42;;;2.60;;
37275;SDS011;23166;51.150;21.620;2022-11-15T06:30:25;9.08;;;4.15;;
37275;SDS011;23166;51.150;21.620;2022-11-15T06:32:57;8.90;;;3.95;;
37275;SDS011;23166;51.150;21.620;2022-11-15T06:35:27;4.17;;;2.45;;
37275;SDS011;23166;51.150;21.620;2022-11-15T06:37:53;10.78;;;4.45;;
37275;SDS011;23166;51.150;21.620;2022-11-15T06:40:20;6.97;;;3.62;;
37275;SDS011;23166;51.150;21.620;2022-11-15T06:42:46;4.22;;;2.70;;
37275;SDS011;23166;51.150;21.620;2022-11-15T06:45:13;9.98;;;4.35;;
37275;SDS011;23166;51.150;21.620;2022-11-15T06:47:46;5.30;;;3.25;;
37275;SDS011;23166;51.150;21.620;2022-11-15T06:50:11;7.20;;;3.37;;
37275;SDS011;23166;51.150;21.620;2022-11-15T06:52:37;4.85;;;3.52;;
37275;SDS011;23166;51.150;21.620;2022-11-15T06:55:04;6.87;;;3.12;;
37275;SDS011;23166;51.150;21.620;2022-11-15T06:59:58;6.10;;;3.90;;
37275;SDS011;23166;51.150;21.620;2022-11-15T07:02:24;10.40;;;5.33;;
37275;SDS011;23166;51.150;21.620;2022-11-15T07:04:51;7.58;;;3.02;;
37275;SDS011;23166;51.150;21.620;2022-11-15T07:07:17;5.53;;;3.20;;
37275;SDS011;23166;51.150;21.620;2022-11-15T07:09:44;10.30;;;3.98;;
37275;SDS011;23166;51.150;21.620;2022-11-15T07:12:10;10.70;;;4.70;;
37275;SDS011;23166;51.150;21.620;2022-11-15T07:14:36;7.62;;;3.55;;
37275;SDS011;23166;51.150;21.620;2022-11-15T07:17:03;12.63;;;5.53;;
37275;SDS011;23166;51.150;21.620;2022-11-15T07:19:31;5.40;;;3.52;;
37275;SDS011;23166;51.150;21.620;2022-11-15T07:21:57;9.73;;;4.10;;
37275;SDS011;23166;51.150;21.620;2022-11-15T07:24:23;8.88;;;4.37;;
37275;SDS011;23166;51.150;21.620;2022-11-15T07:26:50;7.42;;;3.95;;
37275;SDS011;23166;51.150;21.620;2022-11-15T07:29:16;8.15;;;3.80;;
37275;SDS011;23166;51.150;21.620;2022-11-15T07:31:43;7.30;;;3.85;;
37275;SDS011;23166;51.150;21.620;2022-11-15T07:34:09;12.35;;;4.97;;
37275;SDS011;23166;51.150;21.620;2022-11-15T07:36:35;5.12;;;2.58;;
37275;SDS011;23166;51.150;21.620;2022-11-15T07:39:02;4.60;;;2.98;;
37275;SDS011;23166;51.150;21.620;2022-11-15T07:41:28;9.00;;;3.80;;
37275;SDS011;23166;51.150;21.620;2022-11-15T07:43:55;5.95;;;3.70;;
37275;SDS011;23166;51.150;21.620;2022-11-15T07:46:23;6.10;;;3.22;;
37275;SDS011;23166;51.150;21.620;2022-11-15T07:48:49;12.37;;;4.30;;
37275;SDS011;23166;51.150;21.620;2022-11-15T07:51:16;12.73;;;5.25;;
37275;SDS011;23166;51.150;21.620;2022-11-15T07:53:43;8.10;;;3.77;;
37275;SDS011;23166;51.150;21.620;2022-11-15T07:56:09;6.45;;;3.60;;
37275;SDS011;23166;51.150;21.620;2022-11-15T07:58:36;8.28;;;3.10;;
37275;SDS011;23166;51.150;21.620;2022-11-15T08:01:03;8.13;;;2.72;;
37275;SDS011;23166;51.150;21.620;2022-11-15T08:03:30;6.35;;;3.75;;
37275;SDS011;23166;51.150;21.620;2022-11-15T08:08:24;6.22;;;3.08;;
37275;SDS011;23166;51.150;21.620;2022-11-15T08:10:51;10.53;;;3.30;;
37275;SDS011;23166;51.150;21.620;2022-11-15T08:13:18;6.05;;;2.55;;
37275;SDS011;23166;51.150;21.620;2022-11-15T08:15:44;6.97;;;3.58;;
37275;SDS011;23166;51.150;21.620;2022-11-15T08:18:12;8.90;;;4.65;;
37275;SDS011;23166;51.150;21.620;2022-11-15T08:20:40;8.85;;;3.65;;
37275;SDS011;23166;51.150;21.620;2022-11-15T08:23:09;10.95;;;5.35;;
37275;SDS011;23166;51.150;21.620;2022-11-15T08:25:38;9.78;;;4.85;;
37275;SDS011;23166;51.150;21.620;2022-11-15T08:28:05;8.95;;;5.83;;
37275;SDS011;23166;51.150;21.620;2022-11-15T08:30:36;13.20;;;5.67;;
37275;SDS011;23166;51.150;21.620;2022-11-15T08:33:09;13.58;;;5.20;;
37275;SDS011;23166;51.150;21.620;2022-11-15T08:35:39;9.10;;;3.75;;
37275;SDS011;23166;51.150;21.620;2022-11-15T08:38:06;6.50;;;4.20;;
37275;SDS011;23166;51.150;21.620;2022-11-15T08:40:33;6.53;;;3.30;;
37275;SDS011;23166;51.150;21.620;2022-11-15T08:42:59;10.45;;;5.20;;
37275;SDS011;23166;51.150;21.620;2022-11-15T08:45:28;11.10;;;5.00;;
37275;SDS011;23166;51.150;21.620;2022-11-15T08:47:54;10.00;;;4.60;;
37275;SDS011;23166;51.150;21.620;2022-11-15T08:50:21;18.75;;;5.83;;
37275;SDS011;23166;51.150;21.620;2022-11-15T08:52:47;12.65;;;6.25;;
37275;SDS011;23166;51.150;21.620;2022-11-15T08:55:14;15.55;;;8.80;;
37275;SDS011;23166;51.150;21.620;2022-11-15T08:57:40;10.53;;;5.35;;
37275;SDS011;23166;51.150;21.620;2022-11-15T09:00:07;9.98;;;4.45;;
37275;SDS011;23166;51.150;21.620;2022-11-15T09:02:34;9.20;;;4.62;;
37275;SDS011;23166;51.150;21.620;2022-11-15T09:05:03;9.13;;;4.00;;
37275;SDS011;23166;51.150;21.620;2022-11-15T09:07:31;10.93;;;5.45;;
37275;SDS011;23166;51.150;21.620;2022-11-15T09:09:57;8.63;;;3.95;;
37275;SDS011;23166;51.150;21.620;2022-11-15T09:12:24;12.00;;;5.08;;
37275;SDS011;23166;51.150;21.620;2022-11-15T09:14:51;4.42;;;3.15;;
37275;SDS011;23166;51.150;21.620;2022-11-15T09:17:18;9.30;;;3.80;;
37275;SDS011;23166;51.150;21.620;2022-11-15T09:19:44;7.00;;;4.28;;
37275;SDS011;23166;51.150;21.620;2022-11-15T09:22:11;11.10;;;4.55;;
37275;SDS011;23166;51.150;21.620;2022-11-15T09:24:37;10.65;;;4.47;;
37275;SDS011;23166;51.150;21.620;2022-11-15T09:27:03;9.08;;;4.72;;
37275;SDS011;23166;51.150;21.620;2022-11-15T09:29:30;10.45;;;5.15;;
37275;SDS011;23166;51.150;21.620;2022-11-15T09:31:56;9.25;;;4.12;;
37275;SDS011;23166;51.150;21.620;2022-11-15T09:34:22;7.75;;;4.47;;
37275;SDS011;23166;51.150;21.620;2022-11-15T09:36:49;10.88;;;5.10;;
37275;SDS011;23166;51.150;21.620;2022-11-15T09:39:15;12.73;;;6.00;;
37275;SDS011;23166;51.150;21.620;2022-11-15T09:49:29;10.32;;;4.17;;
37275;SDS011;23166;51.150;21.620;2022-11-15T09:51:57;11.73;;;5.33;;
37275;SDS011;23166;51.150;21.620;2022-11-15T09:54:31;28.67;;;7.65;;
37275;SDS011;23166;51.150;21.620;2022-11-15T09:57:09;14.33;;;5.75;;
37275;SDS011;23166;51.150;21.620;2022-11-15T10:05:42;9.33;;;4.70;;
37275;SDS011;23166;51.150;21.620;2022-11-15T10:10:41;10.75;;;5.28;;
37275;SDS011;23166;51.150;21.620;2022-11-15T10:13:17;13.40;;;6.72;;
37275;SDS011;23166;51.150;21.620;2022-11-15T10:15:48;13.37;;;5.77;;
37275;SDS011;23166;51.150;21.620;2022-11-15T10:20:59;11.22;;;4.37;;
37275;SDS011;23166;51.150;21.620;2022-11-15T10:23:27;11.45;;;5.70;;
37275;SDS011;23166;51.150;21.620;2022-11-15T10:25:57;9.88;;;5.30;;
37275;SDS011;23166;51.150;21.620;2022-11-15T10:28:29;7.45;;;4.22;;
37275;SDS011;23166;51.150;21.620;2022-11-15T10:31:00;14.78;;;6.85;;
37275;SDS011;23166;51.150;21.620;2022-11-15T10:33:36;11.75;;;5.17;;
37275;SDS011;23166;51.150;21.620;2022-11-15T10:36:18;11.97;;;5.97;;
37275;SDS011;23166;51.150;21.620;2022-11-15T10:41:32;12.70;;;5.00;;
37275;SDS011;23166;51.150;21.620;2022-11-15T10:46:40;12.45;;;5.37;;
37275;SDS011;23166;51.150;21.620;2022-11-15T10:51:49;15.32;;;5.33;;
37275;SDS011;23166;51.150;21.620;2022-11-15T10:54:27;12.73;;;5.50;;
37275;SDS011;23166;51.150;21.620;2022-11-15T10:57:20;20.20;;;6.20;;
37275;SDS011;23166;51.150;21.620;2022-11-15T10:59:52;15.60;;;5.83;;
37275;SDS011;23166;51.150;21.620;2022-11-15T11:02:27;10.20;;;5.60;;
37275;SDS011;23166;51.150;21.620;2022-11-15T11:04:56;15.63;;;6.08;;
37275;SDS011;23166;51.150;21.620;2022-11-15T11:09:58;14.87;;;5.85;;
37275;SDS011;23166;51.150;21.620;2022-11-15T11:12:33;17.32;;;6.87;;
37275;SDS011;23166;51.150;21.620;2022-11-15T11:15:00;25.23;;;7.35;;
37275;SDS011;23166;51.150;21.620;2022-11-15T11:25:39;15.05;;;7.33;;
37275;SDS011;23166;51.150;21.620;2022-11-15T11:33:58;15.43;;;7.17;;
37275;SDS011;23166;51.150;21.620;2022-11-15T11:36:52;15.58;;;6.85;;
37275;SDS011;23166;51.150;21.620;2022-11-15T11:42:00;19.57;;;7.40;;
37275;SDS011;23166;51.150;21.620;2022-11-15T11:47:21;13.10;;;5.70;;
37275;SDS011;23166;51.150;21.620;2022-11-15T11:49:59;14.30;;;6.00;;
37275;SDS011;23166;51.150;21.620;2022-11-15T12:00:54;18.60;;;5.87;;
37275;SDS011;23166;51.150;21.620;2022-11-15T12:09:04;11.73;;;6.00;;
37275;SDS011;23166;51.150;21.620;2022-11-15T12:14:27;14.93;;;7.85;;
37275;SDS011;23166;51.150;21.620;2022-11-15T12:16:58;11.10;;;6.33;;
37275;SDS011;23166;51.150;21.620;2022-11-15T12:19:25;15.75;;;6.45;;
37275;SDS011;23166;51.150;21.620;2022-11-15T12:24:24;9.20;;;6.33;;
37275;SDS011;23166;51.150;21.620;2022-11-15T12:27:01;16.15;;;6.85;;
37275;SDS011;23166;51.150;21.620;2022-11-15T12:31:55;16.25;;;5.90;;
37275;SDS011;23166;51.150;21.620;2022-11-15T12:45:31;9.15;;;6.22;;
37275;SDS011;23166;51.150;21.620;2022-11-15T12:58:52;20.15;;;7.58;;
37275;SDS011;23166;51.150;21.620;2022-11-15T13:04:24;14.93;;;6.87;;
37275;SDS011;23166;51.150;21.620;2022-11-15T13:06:57;19.60;;;9.23;;
37275;SDS011;23166;51.150;21.620;2022-11-15T13:17:25;21.33;;;9.50;;
37275;SDS011;23166;51.150;21.620;2022-11-15T13:30:58;24.02;;;10.60;;
37275;SDS011;23166;51.150;21.620;2022-11-15T13:33:33;24.75;;;10.80;;
37275;SDS011;23166;51.150;21.620;2022-11-15T13:36:03;29.07;;;12.03;;
37275;SDS011;23166;51.150;21.620;2022-11-15T13:38:32;34.08;;;11.48;;
37275;SDS011;23166;51.150;21.620;2022-11-15T13:41:10;25.43;;;10.28;;
37275;SDS011;23166;51.150;21.620;2022-11-15T13:43:47;28.35;;;13.22;;
37275;SDS011;23166;51.150;21.620;2022-11-15T13:48:46;22.82;;;11.20;;
37275;SDS011;23166;51.150;21.620;2022-11-15T13:51:22;21.68;;;9.70;;
37275;SDS011;23166;51.150;21.620;2022-11-15T13:53:56;30.62;;;11.20;;
37275;SDS011;23166;51.150;21.620;2022-11-15T13:59:09;23.42;;;9.30;;
37275;SDS011;23166;51.150;21.620;2022-11-15T14:04:27;23.98;;;9.88;;
37275;SDS011;23166;51.150;21.620;2022-11-15T14:06:59;20.37;;;9.10;;
37275;SDS011;23166;51.150;21.620;2022-11-15T14:15:17;25.80;;;11.88;;
37275;SDS011;23166;51.150;21.620;2022-11-15T14:20:02;30.30;;;10.53;;
37275;SDS011;23166;51.150;21.620;2022-11-15T14:22:32;20.55;;;10.10;;
37275;SDS011;23166;51.150;21.620;2022-11-15T14:30:38;22.20;;;11.40;;
37275;SDS011;23166;51.150;21.620;2022-11-15T14:35:53;15.88;;;9.10;;
37275;SDS011;23166;51.150;21.620;2022-11-15T14:38:21;29.85;;;12.65;;
37275;SDS011;23166;51.150;21.620;2022-11-15T14:40:48;25.65;;;12.28;;
37275;SDS011;23166;51.150;21.620;2022-11-15T14:43:14;22.77;;;12.50;;
37275;SDS011;23166;51.150;21.620;2022-11-15T14:45:41;21.82;;;10.48;;
37275;SDS011;23166;51.150;21.620;2022-11-15T14:48:07;29.25;;;11.70;;
37275;SDS011;23166;51.150;21.620;2022-11-15T14:50:34;26.40;;;12.60;;
37275;SDS011;23166;51.150;21.620;2022-11-15T14:55:29;24.27;;;11.57;;
37275;SDS011;23166;51.150;21.620;2022-11-15T14:57:58;27.87;;;13.40;;
37275;SDS011;23166;51.150;21.620;2022-11-15T15:00:24;52.65;;;20.52;;
37275;SDS011;23166;51.150;21.620;2022-11-15T15:02:52;79.90;;;31.17;;
37275;SDS011;23166;51.150;21.620;2022-11-15T15:05:20;63.95;;;27.58;;
37275;SDS011;23166;51.150;21.620;2022-11-15T15:07:50;49.70;;;22.80;;
37275;SDS011;23166;51.150;21.620;2022-11-15T15:10:18;52.27;;;20.35;;
37275;SDS011;23166;51.150;21.620;2022-11-15T15:12:45;36.73;;;15.35;;
37275;SDS011;23166;51.150;21.620;2022-11-15T15:15:12;37.60;;;13.70;;
37275;SDS011;23166;51.150;21.620;2022-11-15T15:17:47;42.10;;;14.98;;
37275;SDS011;23166;51.150;21.620;2022-11-15T15:20:13;62.03;;;23.80;;
37275;SDS011;23166;51.150;21.620;2022-11-15T15:22:40;61.77;;;27.87;;
37275;SDS011;23166;51.150;21.620;2022-11-15T15:25:49;54.00;;;20.23;;
37275;SDS011;23166;51.150;21.620;2022-11-15T15:27:52;32.80;;;16.77;;
37275;SDS011;23166;51.150;21.620;2022-11-15T15:30:20;50.85;;;19.50;;
37275;SDS011;23166;51.150;21.620;2022-11-15T15:32:50;58.50;;;21.77;;
37275;SDS011;23166;51.150;21.620;2022-11-15T15:35:17;69.25;;;30.17;;
37275;SDS011;23166;51.150;21.620;2022-11-15T15:40:17;57.83;;;22.67;;
37275;SDS011;23166;51.150;21.620;2022-11-15T15:42:42;55.10;;;23.90;;
37275;SDS011;23166;51.150;21.620;2022-11-15T15:45:09;55.80;;;23.95;;
37275;SDS011;23166;51.150;21.620;2022-11-15T15:47:36;65.22;;;22.90;;
37275;SDS011;23166;51.150;21.620;2022-11-15T15:50:03;79.77;;;23.40;;
37275;SDS011;23166;51.150;21.620;2022-11-15T15:52:43;77.97;;;27.10;;
37275;SDS011;23166;51.150;21.620;2022-11-15T15:55:10;68.35;;;29.92;;
37275;SDS011;23166;51.150;21.620;2022-11-15T15:57:36;65.10;;;27.15;;
37275;SDS011;23166;51.150;21.620;2022-11-15T16:00:03;77.40;;;30.08;;
37275;SDS011;23166;51.150;21.620;2022-11-15T16:02:30;80.22;;;33.55;;
37275;SDS011;23166;51.150;21.620;2022-11-15T16:04:57;83.52;;;33.28;;
37275;SDS011;23166;51.150;21.620;2022-11-15T16:07:23;77.62;;;27.05;;
37275;SDS011;23166;51.150;21.620;2022-11-15T16:09:50;66.97;;;26.37;;
37275;SDS011;23166;51.150;21.620;2022-11-15T16:12:33;55.03;;;22.13;;
37275;SDS011;23166;51.150;21.620;2022-11-15T16:14:58;51.50;;;18.12;;
37275;SDS011;23166;51.150;21.620;2022-11-15T16:17:26;45.08;;;17.67;;
37275;SDS011;23166;51.150;21.620;2022-11-15T16:20:00;42.03;;;17.02;;
37275;SDS011;23166;51.150;21.620;2022-11-15T16:22:27;50.08;;;19.30;;
37275;SDS011;23166;51.150;21.620;2022-11-15T16:24:54;40.28;;;16.50;;
37275;SDS011;23166;51.150;21.620;2022-11-15T16:27:22;45.50;;;19.33;;
37275;SDS011;23166;51.150;21.620;2022-11-15T16:29:48;40.20;;;19.25;;
37275;SDS011;23166;51.150;21.620;2022-11-15T16:32:16;43.28;;;17.82;;
37275;SDS011;23166;51.150;21.620;2022-11-15T16:34:42;33.00;;;17.32;;
37275;SDS011;23166;51.150;21.620;2022-11-15T16:37:18;36.42;;;14.15;;
37275;SDS011;23166;51.150;21.620;2022-11-15T16:39:49;33.83;;;13.80;;
37275;SDS011;23166;51.150;21.620;2022-11-15T16:42:16;30.00;;;11.83;;
37275;SDS011;23166;51.150;21.620;2022-11-15T16:44:42;28.15;;;11.33;;
37275;SDS011;23166;51.150;21.620;2022-11-15T16:47:19;18.95;;;7.53;;
37275;SDS011;23166;51.150;21.620;2022-11-15T16:49:47;24.00;;;9.10;;
37275;SDS011;23166;51.150;21.620;2022-11-15T16:52:14;18.07;;;10.50;;
37275;SDS011;23166;51.150;21.620;2022-11-15T16:54:40;24.23;;;10.88;;
37275;SDS011;23166;51.150;21.620;2022-11-15T16:57:07;15.58;;;6.03;;
37275;SDS011;23166;51.150;21.620;2022-11-15T16:59:35;22.95;;;9.40;;
37275;SDS011;23166;51.150;21.620;2022-11-15T17:02:02;21.60;;;11.43;;
37275;SDS011;23166;51.150;21.620;2022-11-15T17:04:28;15.03;;;8.40;;
37275;SDS011;23166;51.150;21.620;2022-11-15T17:06:56;12.63;;;7.67;;
37275;SDS011;23166;51.150;21.620;2022-11-15T17:09:23;13.65;;;7.67;;
37275;SDS011;23166;51.150;21.620;2022-11-15T17:11:49;12.82;;;7.67;;
37275;SDS011;23166;51.150;21.620;2022-11-15T17:14:16;13.15;;;7.55;;
37275;SDS011;23166;51.150;21.620;2022-11-15T17:16:42;14.05;;;7.65;;
37275;SDS011;23166;51.150;21.620;2022-11-15T17:19:13;14.80;;;7.67;;
37275;SDS011;23166;51.150;21.620;2022-11-15T17:21:40;18.17;;;9.10;;
37275;SDS011;23166;51.150;21.620;2022-11-15T17:24:08;16.93;;;6.70;;
37275;SDS011;23166;51.150;21.620;2022-11-15T17:26:34;14.75;;;7.15;;
37275;SDS011;23166;51.150;21.620;2022-11-15T17:29:01;19.35;;;8.70;;
37275;SDS011;23166;51.150;21.620;2022-11-15T17:31:29;21.62;;;9.58;;
37275;SDS011;23166;51.150;21.620;2022-11-15T17:33:57;13.67;;;9.27;;
37275;SDS011;23166;51.150;21.620;2022-11-15T17:36:23;16.02;;;7.67;;
37275;SDS011;23166;51.150;21.620;2022-11-15T17:38:50;16.97;;;8.15;;
37275;SDS011;23166;51.150;21.620;2022-11-15T17:41:17;17.47;;;10.83;;
37275;SDS011;23166;51.150;21.620;2022-11-15T17:43:45;22.87;;;10.33;;
37275;SDS011;23166;51.150;21.620;2022-11-15T17:48:39;15.75;;;8.15;;
37275;SDS011;23166;51.150;21.620;2022-11-15T17:51:09;23.07;;;10.23;;
37275;SDS011;23166;51.150;21.620;2022-11-15T17:53:37;25.83;;;10.67;;
37275;SDS011;23166;51.150;21.620;2022-11-15T17:58:35;20.82;;;11.15;;
37275;SDS011;23166;51.150;21.620;2022-11-15T18:01:08;35.63;;;13.30;;
37275;SDS011;23166;51.150;21.620;2022-11-15T18:03:36;25.90;;;12.37;;
37275;SDS011;23166;51.150;21.620;2022-11-15T18:06:04;17.45;;;10.03;;
37275;SDS011;23166;51.150;21.620;2022-11-15T18:08:37;29.57;;;10.47;;
37275;SDS011;23166;51.150;21.620;2022-11-15T18:11:05;18.27;;;9.68;;
37275;SDS011;23166;51.150;21.620;2022-11-15T18:13:34;25.08;;;11.95;;
37275;SDS011;23166;51.150;21.620;2022-11-15T18:16:02;23.50;;;11.17;;
37275;SDS011;23166;51.150;21.620;2022-11-15T18:18:30;25.82;;;9.90;;
37275;SDS011;23166;51.150;21.620;2022-11-15T18:20:59;27.22;;;10.85;;
37275;SDS011;23166;51.150;21.620;2022-11-15T18:23:26;18.95;;;9.78;;
37275;SDS011;23166;51.150;21.620;2022-11-15T18:25:53;21.02;;;9.90;;
37275;SDS011;23166;51.150;21.620;2022-11-15T18:28:19;29.75;;;10.25;;
37275;SDS011;23166;51.150;21.620;2022-11-15T18:30:46;24.82;;;12.13;;
37275;SDS011;23166;51.150;21.620;2022-11-15T18:33:12;50.43;;;16.02;;
37275;SDS011;23166;51.150;21.620;2022-11-15T18:35:38;37.20;;;12.63;;
37275;SDS011;23166;51.150;21.620;2022-11-15T18:38:05;22.13;;;11.88;;
37275;SDS011;23166;51.150;21.620;2022-11-15T18:40:31;20.32;;;10.45;;
37275;SDS011;23166;51.150;21.620;2022-11-15T18:42:57;42.85;;;14.73;;
37275;SDS011;23166;51.150;21.620;2022-11-15T18:45:24;23.70;;;10.78;;
37275;SDS011;23166;51.150;21.620;2022-11-15T18:47:50;27.17;;;11.25;;
37275;SDS011;23166;51.150;21.620;2022-11-15T18:50:17;21.60;;;9.73;;
37275;SDS011;23166;51.150;21.620;2022-11-15T18:52:43;24.77;;;11.38;;
37275;SDS011;23166;51.150;21.620;2022-11-15T18:55:09;30.15;;;10.65;;
37275;SDS011;23166;51.150;21.620;2022-11-15T19:00:03;23.12;;;8.93;;
37275;SDS011;23166;51.150;21.620;2022-11-15T19:02:29;15.93;;;6.05;;
37275;SDS011;23166;51.150;21.620;2022-11-15T19:04:56;20.68;;;7.35;;
37275;SDS011;23166;51.150;21.620;2022-11-15T19:07:22;13.25;;;6.10;;
37275;SDS011;23166;51.150;21.620;2022-11-15T19:09:48;10.68;;;5.67;;
37275;SDS011;23166;51.150;21.620;2022-11-15T19:12:15;7.78;;;4.45;;
37275;SDS011;23166;51.150;21.620;2022-11-15T19:14:41;13.43;;;6.95;;
37275;SDS011;23166;51.150;21.620;2022-11-15T19:17:08;12.93;;;5.55;;
37275;SDS011;23166;51.150;21.620;2022-11-15T19:19:34;12.95;;;7.28;;
37275;SDS011;23166;51.150;21.620;2022-11-15T19:22:01;13.43;;;8.43;;
37275;SDS011;23166;51.150;21.620;2022-11-15T19:24:27;15.45;;;8.40;;
37275;SDS011;23166;51.150;21.620;2022-11-15T19:26:54;9.37;;;6.60;;
37275;SDS011;23166;51.150;21.620;2022-11-15T19:29:21;9.03;;;4.10;;
37275;SDS011;23166;51.150;21.620;2022-11-15T19:31:47;9.23;;;6.00;;
37275;SDS011;23166;51.150;21.620;2022-11-15T19:34:13;8.53;;;5.83;;
37275;SDS011;23166;51.150;21.620;2022-11-15T19:36:40;7.95;;;4.72;;
37275;SDS011;23166;51.150;21.620;2022-11-15T19:39:09;8.40;;;5.33;;
37275;SDS011;23166;51.150;21.620;2022-11-15T19:41:38;9.13;;;4.13;;
37275;SDS011;23166;51.150;21.620;2022-11-15T19:44:07;12.43;;;4.33;;
37275;SDS011;23166;51.150;21.620;2022-11-15T19:46:34;6.25;;;4.78;;
37275;SDS011;23166;51.150;21.620;2022-11-15T19:49:00;13.50;;;6.75;;
37275;SDS011;23166;51.150;21.620;2022-11-15T19:51:27;7.42;;;3.80;;
37275;SDS011;23166;51.150;21.620;2022-11-15T19:53:57;9.20;;;6.20;;
37275;SDS011;23166;51.150;21.620;2022-11-15T19:56:26;7.93;;;4.10;;
37275;SDS011;23166;51.150;21.620;2022-11-15T19:58:53;9.13;;;4.55;;
37275;SDS011;23166;51.150;21.620;2022-11-15T20:01:21;10.57;;;4.80;;
37275;SDS011;23166;51.150;21.620;2022-11-15T20:03:50;11.90;;;5.17;;
37275;SDS011;23166;51.150;21.620;2022-11-15T20:06:23;13.00;;;6.57;;
37275;SDS011;23166;51.150;21.620;2022-11-15T20:08:51;9.97;;;5.20;;
37275;SDS011;23166;51.150;21.620;2022-11-15T20:11:18;9.83;;;4.20;;
37275;SDS011;23166;51.150;21.620;2022-11-15T20:13:44;10.18;;;4.70;;
37275;SDS011;23166;51.150;21.620;2022-11-15T20:16:14;10.75;;;6.00;;
37275;SDS011;23166;51.150;21.620;2022-11-15T20:18:42;20.27;;;4.83;;
37275;SDS011;23166;51.150;21.620;2022-11-15T20:21:08;16.60;;;5.05;;
37275;SDS011;23166;51.150;21.620;2022-11-15T20:23:34;8.65;;;5.10;;
37275;SDS011;23166;51.150;21.620;2022-11-15T20:26:01;9.48;;;4.33;;
37275;SDS011;23166;51.150;21.620;2022-11-15T20:28:27;8.98;;;3.83;;
37275;SDS011;23166;51.150;21.620;2022-11-15T20:30:55;7.03;;;4.17;;
37275;SDS011;23166;51.150;21.620;2022-11-15T20:33:23;15.73;;;5.60;;
37275;SDS011;23166;51.150;21.620;2022-11-15T20:35:50;8.63;;;6.62;;
37275;SDS011;23166;51.150;21.620;2022-11-15T20:38:17;11.68;;;5.35;;
37275;SDS011;23166;51.150;21.620;2022-11-15T20:40:45;12.60;;;4.97;;
37275;SDS011;23166;51.150;21.620;2022-11-15T20:43:13;10.95;;;4.58;;
37275;SDS011;23166;51.150;21.620;2022-11-15T20:45:44;12.23;;;5.77;;
37275;SDS011;23166;51.150;21.620;2022-11-15T20:48:11;9.27;;;4.60;;
37275;SDS011;23166;51.150;21.620;2022-11-15T20:50:41;8.67;;;4.23;;
37275;SDS011;23166;51.150;21.620;2022-11-15T20:53:09;19.03;;;6.83;;
37275;SDS011;23166;51.150;21.620;2022-11-15T20:55:41;13.97;;;6.27;;
37275;SDS011;23166;51.150;21.620;2022-11-15T20:58:11;10.13;;;5.30;;